sensor_id;sensor_type;location;lat;lon;timestamp;P1;durP1;ratioP1;P2;durP2;ratioP2
54452;SDS011;40363;52.270;10.546;2022-11-21T00:01:37;19.38;;;9.82;;
54452;SDS011;40363;52.270;10.546;2022-11-21T00:04:04;15.45;;;9.07;;
54452;SDS011;40363;52.270;10.546;2022-11-21T00:06:31;17.50;;;9.43;;
54452;SDS011;40363;52.270;10.546;2022-11-21T00:08:58;17.83;;;8.98;;
54452;SDS011;40363;52.270;10.546;2022-11-21T00:11:24;16.83;;;10.07;;
54452;SDS011;40363;52.270;10.546;2022-11-21T00:13:51;17.52;;;10.15;;
54452;SDS011;40363;52.270;10.546;2022-11-21T00:16:19;14.30;;;8.63;;
54452;SDS011;40363;52.270;10.546;2022-11-21T00:18:45;18.63;;;9.68;;
54452;SDS011;40363;52.270;10.546;2022-11-21T00:21:13;19.70;;;9.75;;
54452;SDS011;40363;52.270;10.546;2022-11-21T00:23:40;19.45;;;10.88;;
54452;SDS011;40363;52.270;10.546;2022-11-21T00:26:07;18.15;;;8.95;;
54452;SDS011;40363;52.270;10.546;2022-11-21T00:28:35;15.50;;;9.07;;
54452;SDS011;40363;52.270;10.546;2022-11-21T00:31:03;20.50;;;9.82;;
54452;SDS011;40363;52.270;10.546;2022-11-21T00:33:33;18.63;;;9.55;;
54452;SDS011;40363;52.270;10.546;2022-11-21T00:36:04;18.58;;;9.65;;
54452;SDS011;40363;52.270;10.546;2022-11-21T00:38:31;17.45;;;9.07;;
54452;SDS011;40363;52.270;10.546;2022-11-21T00:40:58;15.00;;;7.97;;
54452;SDS011;40363;52.270;10.546;2022-11-21T00:43:24;16.15;;;9.18;;
54452;SDS011;40363;52.270;10.546;2022-11-21T00:45:51;20.23;;;9.65;;
54452;SDS011;40363;52.270;10.546;2022-11-21T00:48:18;18.63;;;9.73;;
54452;SDS011;40363;52.270;10.546;2022-11-21T00:50:48;17.60;;;10.35;;
54452;SDS011;40363;52.270;10.546;2022-11-21T00:53:15;19.33;;;11.20;;
54452;SDS011;40363;52.270;10.546;2022-11-21T00:55:41;16.83;;;9.20;;
54452;SDS011;40363;52.270;10.546;2022-11-21T00:58:08;17.23;;;9.13;;
54452;SDS011;40363;52.270;10.546;2022-11-21T01:00:35;14.98;;;8.88;;
54452;SDS011;40363;52.270;10.546;2022-11-21T01:03:01;20.10;;;9.57;;
54452;SDS011;40363;52.270;10.546;2022-11-21T01:05:30;17.83;;;9.57;;
54452;SDS011;40363;52.270;10.546;2022-11-21T01:07:58;18.48;;;9.65;;
54452;SDS011;40363;52.270;10.546;2022-11-21T01:10:25;18.52;;;9.88;;
54452;SDS011;40363;52.270;10.546;2022-11-21T01:12:51;18.42;;;10.73;;
54452;SDS011;40363;52.270;10.546;2022-11-21T01:15:18;17.95;;;9.30;;
54452;SDS011;40363;52.270;10.546;2022-11-21T01:17:44;18.98;;;9.52;;
54452;SDS011;40363;52.270;10.546;2022-11-21T01:20:11;17.95;;;9.43;;
54452;SDS011;40363;52.270;10.546;2022-11-21T01:22:38;17.90;;;9.50;;
54452;SDS011;40363;52.270;10.546;2022-11-21T01:25:07;18.48;;;9.77;;
54452;SDS011;40363;52.270;10.546;2022-11-21T01:27:33;15.70;;;9.70;;
54452;SDS011;40363;52.270;10.546;2022-11-21T01:30:00;18.45;;;9.80;;
54452;SDS011;40363;52.270;10.546;2022-11-21T01:32:27;17.33;;;9.00;;
54452;SDS011;40363;52.270;10.546;2022-11-21T01:34:53;16.92;;;8.90;;
54452;SDS011;40363;52.270;10.546;2022-11-21T01:37:20;19.00;;;8.93;;
54452;SDS011;40363;52.270;10.546;2022-11-21T01:39:46;13.02;;;8.35;;
54452;SDS011;40363;52.270;10.546;2022-11-21T01:42:14;16.73;;;8.15;;
54452;SDS011;40363;52.270;10.546;2022-11-21T01:44:45;14.90;;;7.72;;
54452;SDS011;40363;52.270;10.546;2022-11-21T01:47:13;22.77;;;9.60;;
54452;SDS011;40363;52.270;10.546;2022-11-21T01:49:40;14.02;;;7.72;;
54452;SDS011;40363;52.270;10.546;2022-11-21T01:52:08;19.02;;;9.85;;
54452;SDS011;40363;52.270;10.546;2022-11-21T01:54:40;12.85;;;7.57;;
54452;SDS011;40363;52.270;10.546;2022-11-21T01:57:11;14.38;;;7.15;;
54452;SDS011;40363;52.270;10.546;2022-11-21T01:59:42;17.60;;;7.78;;
54452;SDS011;40363;52.270;10.546;2022-11-21T02:02:14;17.75;;;8.25;;
54452;SDS011;40363;52.270;10.546;2022-11-21T02:04:44;14.75;;;8.55;;
54452;SDS011;40363;52.270;10.546;2022-11-21T02:07:13;21.00;;;9.88;;
54452;SDS011;40363;52.270;10.546;2022-11-21T02:09:42;17.67;;;9.25;;
54452;SDS011;40363;52.270;10.546;2022-11-21T02:12:14;16.30;;;10.05;;
54452;SDS011;40363;52.270;10.546;2022-11-21T02:14:49;17.50;;;8.27;;
54452;SDS011;40363;52.270;10.546;2022-11-21T02:17:18;14.70;;;7.70;;
54452;SDS011;40363;52.270;10.546;2022-11-21T02:19:46;17.35;;;10.13;;
54452;SDS011;40363;52.270;10.546;2022-11-21T02:22:19;21.30;;;10.68;;
54452;SDS011;40363;52.270;10.546;2022-11-21T02:24:59;16.23;;;8.88;;
54452;SDS011;40363;52.270;10.546;2022-11-21T02:27:28;15.43;;;8.07;;
54452;SDS011;40363;52.270;10.546;2022-11-21T02:29:55;20.75;;;10.25;;
54452;SDS011;40363;52.270;10.546;2022-11-21T02:32:24;20.02;;;10.80;;
54452;SDS011;40363;52.270;10.546;2022-11-21T02:34:57;21.23;;;10.57;;
54452;SDS011;40363;52.270;10.546;2022-11-21T02:37:23;20.08;;;9.35;;
54452;SDS011;40363;52.270;10.546;2022-11-21T02:39:50;14.60;;;8.68;;
54452;SDS011;40363;52.270;10.546;2022-11-21T02:42:20;20.02;;;9.73;;
54452;SDS011;40363;52.270;10.546;2022-11-21T02:44:55;16.67;;;8.87;;
54452;SDS011;40363;52.270;10.546;2022-11-21T02:47:27;16.63;;;9.70;;
54452;SDS011;40363;52.270;10.546;2022-11-21T02:49:55;17.55;;;9.25;;
54452;SDS011;40363;52.270;10.546;2022-11-21T02:52:27;14.45;;;9.55;;
54452;SDS011;40363;52.270;10.546;2022-11-21T02:54:53;20.35;;;8.82;;
54452;SDS011;40363;52.270;10.546;2022-11-21T02:57:21;15.57;;;9.25;;
54452;SDS011;40363;52.270;10.546;2022-11-21T02:59:48;20.00;;;9.75;;
54452;SDS011;40363;52.270;10.546;2022-11-21T03:02:15;22.85;;;9.10;;
54452;SDS011;40363;52.270;10.546;2022-11-21T03:04:41;18.38;;;8.88;;
54452;SDS011;40363;52.270;10.546;2022-11-21T03:07:09;21.55;;;9.23;;
54452;SDS011;40363;52.270;10.546;2022-11-21T03:09:35;20.77;;;10.07;;
54452;SDS011;40363;52.270;10.546;2022-11-21T03:12:04;19.35;;;9.27;;
54452;SDS011;40363;52.270;10.546;2022-11-21T03:14:33;20.02;;;9.98;;
54452;SDS011;40363;52.270;10.546;2022-11-21T03:17:00;15.27;;;8.90;;
54452;SDS011;40363;52.270;10.546;2022-11-21T03:19:27;16.73;;;8.30;;
54452;SDS011;40363;52.270;10.546;2022-11-21T03:21:54;19.88;;;9.55;;
54452;SDS011;40363;52.270;10.546;2022-11-21T03:24:21;15.55;;;9.38;;
54452;SDS011;40363;52.270;10.546;2022-11-21T03:26:48;16.45;;;8.88;;
54452;SDS011;40363;52.270;10.546;2022-11-21T03:29:15;17.15;;;9.15;;
54452;SDS011;40363;52.270;10.546;2022-11-21T03:31:43;19.27;;;9.65;;
54452;SDS011;40363;52.270;10.546;2022-11-21T03:34:09;15.48;;;8.45;;
54452;SDS011;40363;52.270;10.546;2022-11-21T03:36:36;16.85;;;8.70;;
54452;SDS011;40363;52.270;10.546;2022-11-21T03:39:03;23.75;;;9.43;;
54452;SDS011;40363;52.270;10.546;2022-11-21T03:41:30;20.60;;;9.00;;
54452;SDS011;40363;52.270;10.546;2022-11-21T03:43:57;18.50;;;9.15;;
54452;SDS011;40363;52.270;10.546;2022-11-21T03:46:24;21.23;;;9.43;;
54452;SDS011;40363;52.270;10.546;2022-11-21T03:48:53;15.45;;;8.80;;
54452;SDS011;40363;52.270;10.546;2022-11-21T03:51:20;15.63;;;9.15;;
54452;SDS011;40363;52.270;10.546;2022-11-21T03:53:47;19.88;;;8.35;;
54452;SDS011;40363;52.270;10.546;2022-11-21T03:56:14;21.48;;;10.32;;
54452;SDS011;40363;52.270;10.546;2022-11-21T03:58:41;18.55;;;8.90;;
54452;SDS011;40363;52.270;10.546;2022-11-21T04:01:09;18.60;;;9.48;;
54452;SDS011;40363;52.270;10.546;2022-11-21T04:03:37;20.48;;;10.05;;
54452;SDS011;40363;52.270;10.546;2022-11-21T04:06:05;20.40;;;9.40;;
54452;SDS011;40363;52.270;10.546;2022-11-21T04:08:32;20.92;;;10.50;;
54452;SDS011;40363;52.270;10.546;2022-11-21T04:10:59;18.55;;;10.27;;
54452;SDS011;40363;52.270;10.546;2022-11-21T04:13:25;18.77;;;9.80;;
54452;SDS011;40363;52.270;10.546;2022-11-21T04:15:52;19.60;;;10.57;;
54452;SDS011;40363;52.270;10.546;2022-11-21T04:18:19;21.70;;;10.38;;
54452;SDS011;40363;52.270;10.546;2022-11-21T04:20:45;19.88;;;9.77;;
54452;SDS011;40363;52.270;10.546;2022-11-21T04:23:14;20.10;;;11.02;;
54452;SDS011;40363;52.270;10.546;2022-11-21T04:25:40;19.52;;;10.95;;
54452;SDS011;40363;52.270;10.546;2022-11-21T04:28:11;20.05;;;10.38;;
54452;SDS011;40363;52.270;10.546;2022-11-21T04:30:38;20.67;;;10.70;;
54452;SDS011;40363;52.270;10.546;2022-11-21T04:33:05;23.25;;;10.68;;
54452;SDS011;40363;52.270;10.546;2022-11-21T04:35:32;20.33;;;10.95;;
54452;SDS011;40363;52.270;10.546;2022-11-21T04:37:59;20.02;;;10.73;;
54452;SDS011;40363;52.270;10.546;2022-11-21T04:40:27;20.35;;;10.32;;
54452;SDS011;40363;52.270;10.546;2022-11-21T04:42:54;19.52;;;10.75;;
54452;SDS011;40363;52.270;10.546;2022-11-21T04:45:21;19.45;;;10.77;;
54452;SDS011;40363;52.270;10.546;2022-11-21T04:47:47;22.88;;;10.88;;
54452;SDS011;40363;52.270;10.546;2022-11-21T04:50:15;19.17;;;10.55;;
54452;SDS011;40363;52.270;10.546;2022-11-21T04:52:47;22.98;;;11.20;;
54452;SDS011;40363;52.270;10.546;2022-11-21T04:55:15;21.48;;;11.27;;
54452;SDS011;40363;52.270;10.546;2022-11-21T04:57:43;20.77;;;11.30;;
54452;SDS011;40363;52.270;10.546;2022-11-21T05:00:11;25.42;;;12.27;;
54452;SDS011;40363;52.270;10.546;2022-11-21T05:02:38;18.67;;;10.15;;
54452;SDS011;40363;52.270;10.546;2022-11-21T05:05:06;20.77;;;10.80;;
54452;SDS011;40363;52.270;10.546;2022-11-21T05:07:33;24.10;;;12.13;;
54452;SDS011;40363;52.270;10.546;2022-11-21T05:09:59;19.73;;;11.68;;
54452;SDS011;40363;52.270;10.546;2022-11-21T05:12:26;20.40;;;10.88;;
54452;SDS011;40363;52.270;10.546;2022-11-21T05:15:11;20.13;;;11.07;;
54452;SDS011;40363;52.270;10.546;2022-11-21T05:17:38;19.08;;;10.02;;
54452;SDS011;40363;52.270;10.546;2022-11-21T05:20:05;20.17;;;11.73;;
54452;SDS011;40363;52.270;10.546;2022-11-21T05:22:32;22.02;;;11.27;;
54452;SDS011;40363;52.270;10.546;2022-11-21T05:24:59;22.25;;;12.38;;
54452;SDS011;40363;52.270;10.546;2022-11-21T05:27:26;22.02;;;10.77;;
54452;SDS011;40363;52.270;10.546;2022-11-21T05:29:52;21.80;;;10.77;;
54452;SDS011;40363;52.270;10.546;2022-11-21T05:32:21;26.17;;;12.52;;
54452;SDS011;40363;52.270;10.546;2022-11-21T05:34:48;25.50;;;11.73;;
54452;SDS011;40363;52.270;10.546;2022-11-21T05:37:15;24.50;;;11.52;;
54452;SDS011;40363;52.270;10.546;2022-11-21T05:39:42;25.23;;;11.52;;
54452;SDS011;40363;52.270;10.546;2022-11-21T05:42:08;22.27;;;12.18;;
54452;SDS011;40363;52.270;10.546;2022-11-21T05:44:35;23.52;;;12.57;;
54452;SDS011;40363;52.270;10.546;2022-11-21T05:47:01;24.13;;;12.02;;
54452;SDS011;40363;52.270;10.546;2022-11-21T05:49:29;25.77;;;12.55;;
54452;SDS011;40363;52.270;10.546;2022-11-21T05:51:56;24.33;;;13.32;;
54452;SDS011;40363;52.270;10.546;2022-11-21T05:54:22;24.40;;;12.20;;
54452;SDS011;40363;52.270;10.546;2022-11-21T05:56:49;24.73;;;11.75;;
54452;SDS011;40363;52.270;10.546;2022-11-21T05:59:15;24.70;;;13.15;;
54452;SDS011;40363;52.270;10.546;2022-11-21T06:01:42;19.75;;;12.98;;
54452;SDS011;40363;52.270;10.546;2022-11-21T06:04:26;24.52;;;13.23;;
54452;SDS011;40363;52.270;10.546;2022-11-21T06:06:54;28.38;;;12.65;;
54452;SDS011;40363;52.270;10.546;2022-11-21T06:09:21;22.05;;;11.98;;
54452;SDS011;40363;52.270;10.546;2022-11-21T06:11:47;23.50;;;13.13;;
54452;SDS011;40363;52.270;10.546;2022-11-21T06:14:14;24.67;;;12.77;;
54452;SDS011;40363;52.270;10.546;2022-11-21T06:16:41;24.35;;;12.80;;
54452;SDS011;40363;52.270;10.546;2022-11-21T06:19:07;23.35;;;12.18;;
54452;SDS011;40363;52.270;10.546;2022-11-21T06:21:34;26.10;;;12.90;;
54452;SDS011;40363;52.270;10.546;2022-11-21T06:24:02;25.60;;;13.30;;
54452;SDS011;40363;52.270;10.546;2022-11-21T06:26:29;25.88;;;13.38;;
54452;SDS011;40363;52.270;10.546;2022-11-21T06:28:56;22.92;;;12.40;;
54452;SDS011;40363;52.270;10.546;2022-11-21T06:31:23;29.23;;;14.00;;
54452;SDS011;40363;52.270;10.546;2022-11-21T06:33:52;24.48;;;12.82;;
54452;SDS011;40363;52.270;10.546;2022-11-21T06:36:19;30.80;;;14.23;;
54452;SDS011;40363;52.270;10.546;2022-11-21T06:38:46;21.67;;;12.32;;
54452;SDS011;40363;52.270;10.546;2022-11-21T06:41:15;29.17;;;14.35;;
54452;SDS011;40363;52.270;10.546;2022-11-21T06:43:43;28.10;;;12.30;;
54452;SDS011;40363;52.270;10.546;2022-11-21T06:46:10;24.13;;;13.52;;
54452;SDS011;40363;52.270;10.546;2022-11-21T06:48:37;23.98;;;13.25;;
54452;SDS011;40363;52.270;10.546;2022-11-21T06:51:04;27.02;;;13.20;;
54452;SDS011;40363;52.270;10.546;2022-11-21T06:53:32;24.13;;;12.43;;
54452;SDS011;40363;52.270;10.546;2022-11-21T06:55:59;28.80;;;13.30;;
54452;SDS011;40363;52.270;10.546;2022-11-21T06:58:27;31.38;;;14.13;;
54452;SDS011;40363;52.270;10.546;2022-11-21T07:00:54;27.33;;;13.77;;
54452;SDS011;40363;52.270;10.546;2022-11-21T07:03:21;31.95;;;14.27;;
54452;SDS011;40363;52.270;10.546;2022-11-21T07:05:48;31.38;;;13.27;;
54452;SDS011;40363;52.270;10.546;2022-11-21T07:08:16;25.63;;;12.63;;
54452;SDS011;40363;52.270;10.546;2022-11-21T07:10:43;24.05;;;12.70;;
54452;SDS011;40363;52.270;10.546;2022-11-21T07:13:09;26.98;;;14.27;;
54452;SDS011;40363;52.270;10.546;2022-11-21T07:15:51;26.73;;;13.55;;
54452;SDS011;40363;52.270;10.546;2022-11-21T07:18:18;24.83;;;12.27;;
54452;SDS011;40363;52.270;10.546;2022-11-21T07:20:46;29.67;;;12.68;;
54452;SDS011;40363;52.270;10.546;2022-11-21T07:23:13;25.42;;;13.15;;
54452;SDS011;40363;52.270;10.546;2022-11-21T07:25:41;29.75;;;14.10;;
54452;SDS011;40363;52.270;10.546;2022-11-21T07:28:08;29.45;;;13.95;;
54452;SDS011;40363;52.270;10.546;2022-11-21T07:30:35;25.85;;;13.70;;
54452;SDS011;40363;52.270;10.546;2022-11-21T07:33:04;23.92;;;13.07;;
54452;SDS011;40363;52.270;10.546;2022-11-21T07:35:32;28.48;;;13.05;;
54452;SDS011;40363;52.270;10.546;2022-11-21T07:37:59;26.00;;;13.60;;
54452;SDS011;40363;52.270;10.546;2022-11-21T07:40:26;25.52;;;12.18;;
54452;SDS011;40363;52.270;10.546;2022-11-21T07:42:53;28.27;;;13.35;;
54452;SDS011;40363;52.270;10.546;2022-11-21T07:45:25;27.05;;;13.63;;
54452;SDS011;40363;52.270;10.546;2022-11-21T07:47:55;33.08;;;13.40;;
54452;SDS011;40363;52.270;10.546;2022-11-21T07:50:24;25.95;;;13.27;;
54452;SDS011;40363;52.270;10.546;2022-11-21T07:52:55;22.90;;;12.15;;
54452;SDS011;40363;52.270;10.546;2022-11-21T07:55:22;26.95;;;12.20;;
54452;SDS011;40363;52.270;10.546;2022-11-21T07:57:55;28.25;;;14.65;;
54452;SDS011;40363;52.270;10.546;2022-11-21T08:00:23;28.08;;;13.85;;
54452;SDS011;40363;52.270;10.546;2022-11-21T08:02:50;26.35;;;14.55;;
54452;SDS011;40363;52.270;10.546;2022-11-21T08:05:16;28.15;;;15.43;;
54452;SDS011;40363;52.270;10.546;2022-11-21T08:07:44;31.10;;;14.90;;
54452;SDS011;40363;52.270;10.546;2022-11-21T08:10:11;27.33;;;15.00;;
54452;SDS011;40363;52.270;10.546;2022-11-21T08:12:37;31.20;;;14.95;;
54452;SDS011;40363;52.270;10.546;2022-11-21T08:15:04;28.30;;;14.35;;
54452;SDS011;40363;52.270;10.546;2022-11-21T08:17:32;28.00;;;13.90;;
54452;SDS011;40363;52.270;10.546;2022-11-21T08:19:59;28.77;;;15.25;;
54452;SDS011;40363;52.270;10.546;2022-11-21T08:22:26;34.45;;;15.73;;
54452;SDS011;40363;52.270;10.546;2022-11-21T08:24:54;26.98;;;13.20;;
54452;SDS011;40363;52.270;10.546;2022-11-21T08:27:21;29.70;;;14.25;;
54452;SDS011;40363;52.270;10.546;2022-11-21T08:29:48;28.42;;;14.00;;
54452;SDS011;40363;52.270;10.546;2022-11-21T08:32:15;24.02;;;12.43;;
54452;SDS011;40363;52.270;10.546;2022-11-21T08:34:42;25.88;;;12.75;;
54452;SDS011;40363;52.270;10.546;2022-11-21T08:37:09;21.92;;;12.38;;
54452;SDS011;40363;52.270;10.546;2022-11-21T08:39:35;27.95;;;12.73;;
54452;SDS011;40363;52.270;10.546;2022-11-21T08:42:04;22.85;;;12.70;;
54452;SDS011;40363;52.270;10.546;2022-11-21T08:44:31;29.92;;;13.55;;
54452;SDS011;40363;52.270;10.546;2022-11-21T08:46:59;24.92;;;13.23;;
54452;SDS011;40363;52.270;10.546;2022-11-21T08:49:26;28.45;;;13.43;;
54452;SDS011;40363;52.270;10.546;2022-11-21T08:51:53;25.60;;;12.68;;
54452;SDS011;40363;52.270;10.546;2022-11-21T08:54:21;21.77;;;11.20;;
54452;SDS011;40363;52.270;10.546;2022-11-21T08:56:49;23.38;;;12.40;;
54452;SDS011;40363;52.270;10.546;2022-11-21T08:59:17;21.80;;;12.93;;
54452;SDS011;40363;52.270;10.546;2022-11-21T09:01:44;22.15;;;11.82;;
54452;SDS011;40363;52.270;10.546;2022-11-21T09:04:11;21.23;;;11.82;;
54452;SDS011;40363;52.270;10.546;2022-11-21T09:06:37;20.25;;;11.25;;
54452;SDS011;40363;52.270;10.546;2022-11-21T09:09:04;21.23;;;11.15;;
54452;SDS011;40363;52.270;10.546;2022-11-21T09:11:35;20.33;;;10.85;;
54452;SDS011;40363;52.270;10.546;2022-11-21T09:14:02;17.27;;;10.02;;
54452;SDS011;40363;52.270;10.546;2022-11-21T09:16:48;24.40;;;11.03;;
54452;SDS011;40363;52.270;10.546;2022-11-21T09:21:59;17.40;;;9.52;;
54452;SDS011;40363;52.270;10.546;2022-11-21T09:24:25;20.10;;;9.85;;
54452;SDS011;40363;52.270;10.546;2022-11-21T09:26:52;15.50;;;9.57;;
54452;SDS011;40363;52.270;10.546;2022-11-21T09:29:19;21.42;;;10.40;;
54452;SDS011;40363;52.270;10.546;2022-11-21T09:31:45;20.05;;;10.98;;
54452;SDS011;40363;52.270;10.546;2022-11-21T09:34:13;18.00;;;9.82;;
54452;SDS011;40363;52.270;10.546;2022-11-21T09:36:40;19.08;;;10.15;;
54452;SDS011;40363;52.270;10.546;2022-11-21T09:39:07;21.88;;;9.88;;
54452;SDS011;40363;52.270;10.546;2022-11-21T09:41:35;19.63;;;10.10;;
54452;SDS011;40363;52.270;10.546;2022-11-21T09:44:22;21.67;;;9.43;;
54452;SDS011;40363;52.270;10.546;2022-11-21T09:47:16;18.42;;;9.35;;
54452;SDS011;40363;52.270;10.546;2022-11-21T09:49:50;19.85;;;9.60;;
54452;SDS011;40363;52.270;10.546;2022-11-21T09:52:21;15.50;;;8.13;;
54452;SDS011;40363;52.270;10.546;2022-11-21T09:54:55;20.08;;;9.43;;
54452;SDS011;40363;52.270;10.546;2022-11-21T09:57:24;18.50;;;8.38;;
54452;SDS011;40363;52.270;10.546;2022-11-21T09:59:51;16.30;;;9.27;;
54452;SDS011;40363;52.270;10.546;2022-11-21T10:02:20;17.17;;;8.50;;
54452;SDS011;40363;52.270;10.546;2022-11-21T10:04:49;20.33;;;9.75;;
54452;SDS011;40363;52.270;10.546;2022-11-21T10:07:19;18.88;;;9.35;;
54452;SDS011;40363;52.270;10.546;2022-11-21T10:13:01;18.30;;;8.95;;
54452;SDS011;40363;52.270;10.546;2022-11-21T10:15:42;16.77;;;8.25;;
54452;SDS011;40363;52.270;10.546;2022-11-21T10:18:25;14.13;;;8.00;;
54452;SDS011;40363;52.270;10.546;2022-11-21T10:21:01;15.02;;;6.25;;
54452;SDS011;40363;52.270;10.546;2022-11-21T10:26:35;15.90;;;8.05;;
54452;SDS011;40363;52.270;10.546;2022-11-21T10:29:11;16.92;;;6.90;;
54452;SDS011;40363;52.270;10.546;2022-11-21T10:31:44;13.52;;;5.93;;
54452;SDS011;40363;52.270;10.546;2022-11-21T10:34:14;12.05;;;6.85;;
54452;SDS011;40363;52.270;10.546;2022-11-21T10:36:46;15.48;;;7.10;;
54452;SDS011;40363;52.270;10.546;2022-11-21T10:39:17;15.35;;;7.45;;
54452;SDS011;40363;52.270;10.546;2022-11-21T10:41:49;14.15;;;6.45;;
54452;SDS011;40363;52.270;10.546;2022-11-21T10:44:23;16.13;;;8.55;;
54452;SDS011;40363;52.270;10.546;2022-11-21T10:47:12;17.35;;;9.05;;
54452;SDS011;40363;52.270;10.546;2022-11-21T10:49:40;18.42;;;9.65;;
54452;SDS011;40363;52.270;10.546;2022-11-21T10:52:11;18.65;;;9.18;;
54452;SDS011;40363;52.270;10.546;2022-11-21T10:57:30;15.73;;;8.30;;
54452;SDS011;40363;52.270;10.546;2022-11-21T11:00:13;19.58;;;9.00;;
54452;SDS011;40363;52.270;10.546;2022-11-21T11:03:03;17.38;;;8.98;;
54452;SDS011;40363;52.270;10.546;2022-11-21T11:05:32;15.50;;;7.53;;
54452;SDS011;40363;52.270;10.546;2022-11-21T11:08:02;14.30;;;7.65;;
54452;SDS011;40363;52.270;10.546;2022-11-21T11:10:31;13.52;;;7.30;;
54452;SDS011;40363;52.270;10.546;2022-11-21T11:12:59;14.48;;;7.82;;
54452;SDS011;40363;52.270;10.546;2022-11-21T11:15:54;16.88;;;7.10;;
54452;SDS011;40363;52.270;10.546;2022-11-21T11:18:26;16.45;;;7.63;;
54452;SDS011;40363;52.270;10.546;2022-11-21T11:20:53;15.43;;;7.80;;
54452;SDS011;40363;52.270;10.546;2022-11-21T11:23:40;14.45;;;7.70;;
54452;SDS011;40363;52.270;10.546;2022-11-21T11:26:17;17.70;;;7.70;;
54452;SDS011;40363;52.270;10.546;2022-11-21T11:28:46;13.20;;;6.45;;
54452;SDS011;40363;52.270;10.546;2022-11-21T11:31:13;13.52;;;7.05;;
54452;SDS011;40363;52.270;10.546;2022-11-21T11:33:40;13.88;;;6.00;;
54452;SDS011;40363;52.270;10.546;2022-11-21T11:36:16;10.38;;;5.95;;
54452;SDS011;40363;52.270;10.546;2022-11-21T11:38:53;10.73;;;6.30;;
54452;SDS011;40363;52.270;10.546;2022-11-21T11:44:35;11.48;;;6.10;;
54452;SDS011;40363;52.270;10.546;2022-11-21T11:47:42;13.02;;;5.97;;
54452;SDS011;40363;52.270;10.546;2022-11-21T11:50:14;16.23;;;7.13;;
54452;SDS011;40363;52.270;10.546;2022-11-21T11:52:49;12.10;;;6.40;;
54452;SDS011;40363;52.270;10.546;2022-11-21T11:55:28;12.25;;;6.68;;
54452;SDS011;40363;52.270;10.546;2022-11-21T12:00:32;11.43;;;5.55;;
54452;SDS011;40363;52.270;10.546;2022-11-21T12:03:10;16.17;;;6.22;;
54452;SDS011;40363;52.270;10.546;2022-11-21T12:05:49;14.77;;;7.72;;
54452;SDS011;40363;52.270;10.546;2022-11-21T12:08:22;19.08;;;6.65;;
54452;SDS011;40363;52.270;10.546;2022-11-21T12:10:58;13.20;;;6.40;;
54452;SDS011;40363;52.270;10.546;2022-11-21T12:13:48;13.50;;;5.38;;
54452;SDS011;40363;52.270;10.546;2022-11-21T12:16:17;10.48;;;5.88;;
54452;SDS011;40363;52.270;10.546;2022-11-21T12:18:47;12.35;;;6.60;;
54452;SDS011;40363;52.270;10.546;2022-11-21T12:21:19;13.15;;;5.35;;
54452;SDS011;40363;52.270;10.546;2022-11-21T12:23:48;14.27;;;6.45;;
54452;SDS011;40363;52.270;10.546;2022-11-21T12:31:48;10.60;;;5.18;;
54452;SDS011;40363;52.270;10.546;2022-11-21T12:34:29;11.60;;;5.18;;
54452;SDS011;40363;52.270;10.546;2022-11-21T12:37:04;9.23;;;4.93;;
54452;SDS011;40363;52.270;10.546;2022-11-21T12:42:39;10.55;;;4.68;;
54452;SDS011;40363;52.270;10.546;2022-11-21T12:45:28;8.65;;;4.05;;
54452;SDS011;40363;52.270;10.546;2022-11-21T12:48:05;7.05;;;3.92;;
54452;SDS011;40363;52.270;10.546;2022-11-21T12:51:18;11.55;;;5.43;;
54452;SDS011;40363;52.270;10.546;2022-11-21T12:54:25;8.57;;;4.30;;
54452;SDS011;40363;52.270;10.546;2022-11-21T12:57:07;9.50;;;5.22;;
54452;SDS011;40363;52.270;10.546;2022-11-21T12:59:40;10.45;;;4.60;;
54452;SDS011;40363;52.270;10.546;2022-11-21T13:02:24;9.35;;;5.03;;
54452;SDS011;40363;52.270;10.546;2022-11-21T13:04:57;12.25;;;6.07;;
54452;SDS011;40363;52.270;10.546;2022-11-21T13:07:26;13.10;;;4.97;;
54452;SDS011;40363;52.270;10.546;2022-11-21T13:09:55;9.65;;;5.07;;
54452;SDS011;40363;52.270;10.546;2022-11-21T13:12:25;11.45;;;5.10;;
54452;SDS011;40363;52.270;10.546;2022-11-21T13:15:03;10.57;;;5.82;;
54452;SDS011;40363;52.270;10.546;2022-11-21T13:17:40;14.45;;;5.63;;
54452;SDS011;40363;52.270;10.546;2022-11-21T13:20:14;10.85;;;5.43;;
54452;SDS011;40363;52.270;10.546;2022-11-21T13:22:48;12.25;;;6.47;;
54452;SDS011;40363;52.270;10.546;2022-11-21T13:28:22;14.35;;;7.07;;
54452;SDS011;40363;52.270;10.546;2022-11-21T13:30:58;15.57;;;6.45;;
54452;SDS011;40363;52.270;10.546;2022-11-21T13:33:43;15.13;;;7.28;;
54452;SDS011;40363;52.270;10.546;2022-11-21T13:36:12;14.55;;;7.30;;
54452;SDS011;40363;52.270;10.546;2022-11-21T13:41:59;12.48;;;7.22;;
54452;SDS011;40363;52.270;10.546;2022-11-21T13:44:44;14.15;;;6.55;;
54452;SDS011;40363;52.270;10.546;2022-11-21T13:47:28;15.65;;;7.93;;
54452;SDS011;40363;52.270;10.546;2022-11-21T13:50:23;13.18;;;6.82;;
54452;SDS011;40363;52.270;10.546;2022-11-21T13:53:15;13.82;;;6.65;;
54452;SDS011;40363;52.270;10.546;2022-11-21T13:56:06;14.20;;;6.50;;
54452;SDS011;40363;52.270;10.546;2022-11-21T13:58:45;14.50;;;7.32;;
54452;SDS011;40363;52.270;10.546;2022-11-21T14:01:30;17.65;;;7.45;;
54452;SDS011;40363;52.270;10.546;2022-11-21T14:07:15;10.82;;;5.57;;
54452;SDS011;40363;52.270;10.546;2022-11-21T14:09:48;11.00;;;6.03;;
54452;SDS011;40363;52.270;10.546;2022-11-21T14:12:18;12.63;;;5.43;;
54452;SDS011;40363;52.270;10.546;2022-11-21T14:14:50;12.38;;;6.00;;
54452;SDS011;40363;52.270;10.546;2022-11-21T14:17:23;16.40;;;7.07;;
54452;SDS011;40363;52.270;10.546;2022-11-21T14:20:03;14.30;;;5.90;;
54452;SDS011;40363;52.270;10.546;2022-11-21T14:22:39;12.38;;;6.05;;
54452;SDS011;40363;52.270;10.546;2022-11-21T14:25:08;11.43;;;5.38;;
54452;SDS011;40363;52.270;10.546;2022-11-21T14:27:43;14.40;;;6.13;;
54452;SDS011;40363;52.270;10.546;2022-11-21T14:30:28;16.73;;;6.55;;
54452;SDS011;40363;52.270;10.546;2022-11-21T14:35:49;17.20;;;6.72;;
54452;SDS011;40363;52.270;10.546;2022-11-21T14:38:19;12.35;;;6.72;;
54452;SDS011;40363;52.270;10.546;2022-11-21T14:40:47;12.85;;;6.95;;
54452;SDS011;40363;52.270;10.546;2022-11-21T14:43:20;17.60;;;6.07;;
54452;SDS011;40363;52.270;10.546;2022-11-21T14:45:54;11.40;;;5.07;;
54452;SDS011;40363;52.270;10.546;2022-11-21T14:48:24;15.55;;;5.90;;
54452;SDS011;40363;52.270;10.546;2022-11-21T14:50:53;11.20;;;5.38;;
54452;SDS011;40363;52.270;10.546;2022-11-21T14:53:25;16.27;;;7.60;;
54452;SDS011;40363;52.270;10.546;2022-11-21T14:55:53;14.95;;;6.72;;
54452;SDS011;40363;52.270;10.546;2022-11-21T14:58:20;12.43;;;5.68;;
54452;SDS011;40363;52.270;10.546;2022-11-21T15:01:00;16.00;;;6.95;;
54452;SDS011;40363;52.270;10.546;2022-11-21T15:03:27;16.25;;;6.50;;
54452;SDS011;40363;52.270;10.546;2022-11-21T15:06:02;14.35;;;6.47;;
54452;SDS011;40363;52.270;10.546;2022-11-21T15:08:30;16.88;;;7.57;;
54452;SDS011;40363;52.270;10.546;2022-11-21T15:10:58;15.45;;;6.35;;
54452;SDS011;40363;52.270;10.546;2022-11-21T15:13:27;16.40;;;7.80;;